sensor_id;sensor_type;location;lat;lon;timestamp;P1;durP1;ratioP1;P2;durP2;ratioP2
54897;SDS011;40800;52.704;6.398;2022-07-23T00:02:05;4.45;;;3.35;;
54897;SDS011;40800;52.704;6.398;2022-07-23T00:04:31;5.83;;;3.13;;
54897;SDS011;40800;52.704;6.398;2022-07-23T00:06:58;4.33;;;3.33;;
54897;SDS011;40800;52.704;6.398;2022-07-23T00:09:23;5.60;;;3.25;;
54897;SDS011;40800;52.704;6.398;2022-07-23T00:11:49;6.45;;;3.20;;
54897;SDS011;40800;52.704;6.398;2022-07-23T00:14:15;4.85;;;3.38;;
54897;SDS011;40800;52.704;6.398;2022-07-23T00:16:40;5.18;;;3.40;;
54897;SDS011;40800;52.704;6.398;2022-07-23T00:19:06;4.90;;;3.20;;
54897;SDS011;40800;52.704;6.398;2022-07-23T00:21:31;7.25;;;3.20;;
54897;SDS011;40800;52.704;6.398;2022-07-23T00:23:57;5.10;;;3.10;;
54897;SDS011;40800;52.704;6.398;2022-07-23T00:26:23;6.05;;;3.42;;
54897;SDS011;40800;52.704;6.398;2022-07-23T00:28:48;4.82;;;3.42;;
54897;SDS011;40800;52.704;6.398;2022-07-23T00:31:14;7.90;;;4.00;;
54897;SDS011;40800;52.704;6.398;2022-07-23T00:33:40;5.05;;;3.30;;
54897;SDS011;40800;52.704;6.398;2022-07-23T00:36:06;4.50;;;3.00;;
54897;SDS011;40800;52.704;6.398;2022-07-23T00:38:32;4.85;;;2.92;;
54897;SDS011;40800;52.704;6.398;2022-07-23T00:40:57;5.20;;;3.13;;
54897;SDS011;40800;52.704;6.398;2022-07-23T00:43:23;4.00;;;3.13;;
54897;SDS011;40800;52.704;6.398;2022-07-23T00:45:49;5.75;;;3.58;;
54897;SDS011;40800;52.704;6.398;2022-07-23T00:48:14;4.93;;;4.00;;
54897;SDS011;40800;52.704;6.398;2022-07-23T00:50:40;5.80;;;3.90;;
54897;SDS011;40800;52.704;6.398;2022-07-23T00:53:06;5.47;;;4.10;;
54897;SDS011;40800;52.704;6.398;2022-07-23T00:55:33;6.00;;;4.03;;
54897;SDS011;40800;52.704;6.398;2022-07-23T00:57:59;5.72;;;3.85;;
54897;SDS011;40800;52.704;6.398;2022-07-23T01:00:25;5.07;;;3.58;;
54897;SDS011;40800;52.704;6.398;2022-07-23T01:02:51;6.38;;;3.75;;
54897;SDS011;40800;52.704;6.398;2022-07-23T01:05:17;6.88;;;4.25;;
54897;SDS011;40800;52.704;6.398;2022-07-23T01:07:47;4.85;;;3.58;;
54897;SDS011;40800;52.704;6.398;2022-07-23T01:10:14;5.63;;;3.40;;
54897;SDS011;40800;52.704;6.398;2022-07-23T01:13:04;5.28;;;2.95;;
54897;SDS011;40800;52.704;6.398;2022-07-23T01:15:32;4.57;;;3.10;;
54897;SDS011;40800;52.704;6.398;2022-07-23T01:17:59;4.22;;;3.30;;
54897;SDS011;40800;52.704;6.398;2022-07-23T01:20:25;4.63;;;3.30;;
54897;SDS011;40800;52.704;6.398;2022-07-23T01:22:51;5.63;;;3.85;;
54897;SDS011;40800;52.704;6.398;2022-07-23T01:25:18;5.97;;;3.65;;
54897;SDS011;40800;52.704;6.398;2022-07-23T01:27:43;6.18;;;3.47;;
54897;SDS011;40800;52.704;6.398;2022-07-23T01:30:09;5.70;;;3.50;;
54897;SDS011;40800;52.704;6.398;2022-07-23T01:32:35;4.33;;;3.37;;
54897;SDS011;40800;52.704;6.398;2022-07-23T01:35:01;3.50;;;2.85;;
54897;SDS011;40800;52.704;6.398;2022-07-23T01:37:27;5.25;;;3.08;;
54897;SDS011;40800;52.704;6.398;2022-07-23T01:39:53;3.72;;;2.78;;
54897;SDS011;40800;52.704;6.398;2022-07-23T01:42:18;4.25;;;3.08;;
54897;SDS011;40800;52.704;6.398;2022-07-23T01:44:44;3.92;;;2.70;;
54897;SDS011;40800;52.704;6.398;2022-07-23T01:47:10;5.38;;;3.25;;
54897;SDS011;40800;52.704;6.398;2022-07-23T01:49:35;8.02;;;5.90;;
54897;SDS011;40800;52.704;6.398;2022-07-23T01:52:01;234.60;;;14.50;;
54897;SDS011;40800;52.704;6.398;2022-07-23T01:54:29;5.63;;;4.50;;
54897;SDS011;40800;52.704;6.398;2022-07-23T01:56:55;5.53;;;3.80;;
54897;SDS011;40800;52.704;6.398;2022-07-23T01:59:22;51.83;;;4.50;;
54897;SDS011;40800;52.704;6.398;2022-07-23T02:01:47;4.05;;;2.95;;
54897;SDS011;40800;52.704;6.398;2022-07-23T02:04:15;3.50;;;2.90;;
54897;SDS011;40800;52.704;6.398;2022-07-23T02:06:42;5.57;;;3.10;;
54897;SDS011;40800;52.704;6.398;2022-07-23T02:09:07;3.42;;;2.70;;
54897;SDS011;40800;52.704;6.398;2022-07-23T02:11:33;3.28;;;2.72;;
54897;SDS011;40800;52.704;6.398;2022-07-23T02:13:58;137.07;;;7.40;;
54897;SDS011;40800;52.704;6.398;2022-07-23T02:16:24;3.50;;;2.63;;
54897;SDS011;40800;52.704;6.398;2022-07-23T02:18:50;4.03;;;2.78;;
54897;SDS011;40800;52.704;6.398;2022-07-23T02:21:15;3.85;;;2.92;;
54897;SDS011;40800;52.704;6.398;2022-07-23T02:23:41;4.40;;;3.58;;
54897;SDS011;40800;52.704;6.398;2022-07-23T02:26:06;4.85;;;3.42;;
54897;SDS011;40800;52.704;6.398;2022-07-23T02:28:32;4.85;;;3.90;;
54897;SDS011;40800;52.704;6.398;2022-07-23T02:30:58;5.47;;;3.75;;
54897;SDS011;40800;52.704;6.398;2022-07-23T02:33:23;5.38;;;3.30;;
54897;SDS011;40800;52.704;6.398;2022-07-23T02:35:49;321.60;;;16.17;;
54897;SDS011;40800;52.704;6.398;2022-07-23T02:38:15;369.83;;;14.95;;
54897;SDS011;40800;52.704;6.398;2022-07-23T02:40:40;60.70;;;4.65;;
54897;SDS011;40800;52.704;6.398;2022-07-23T02:43:06;6.03;;;3.90;;
54897;SDS011;40800;52.704;6.398;2022-07-23T02:45:31;7.85;;;3.70;;
54897;SDS011;40800;52.704;6.398;2022-07-23T02:47:57;3.80;;;2.92;;
54897;SDS011;40800;52.704;6.398;2022-07-23T02:50:23;3.80;;;2.63;;
54897;SDS011;40800;52.704;6.398;2022-07-23T02:52:48;3.25;;;2.30;;
54897;SDS011;40800;52.704;6.398;2022-07-23T02:55:14;4.18;;;2.22;;
54897;SDS011;40800;52.704;6.398;2022-07-23T02:57:40;4.07;;;2.53;;
54897;SDS011;40800;52.704;6.398;2022-07-23T03:00:06;3.92;;;2.50;;
54897;SDS011;40800;52.704;6.398;2022-07-23T03:02:32;5.45;;;3.10;;
54897;SDS011;40800;52.704;6.398;2022-07-23T03:04:58;5.72;;;3.90;;
54897;SDS011;40800;52.704;6.398;2022-07-23T03:07:23;90.00;;;5.55;;
54897;SDS011;40800;52.704;6.398;2022-07-23T03:09:49;3.42;;;2.60;;
54897;SDS011;40800;52.704;6.398;2022-07-23T03:12:15;3.50;;;2.40;;
54897;SDS011;40800;52.704;6.398;2022-07-23T03:14:41;4.18;;;2.95;;
54897;SDS011;40800;52.704;6.398;2022-07-23T03:17:07;5.20;;;3.63;;
54897;SDS011;40800;52.704;6.398;2022-07-23T03:19:33;4.18;;;3.60;;
54897;SDS011;40800;52.704;6.398;2022-07-23T03:21:58;5.38;;;3.67;;
54897;SDS011;40800;52.704;6.398;2022-07-23T03:24:24;4.95;;;3.33;;
54897;SDS011;40800;52.704;6.398;2022-07-23T03:27:10;147.93;;;9.50;;
54897;SDS011;40800;52.704;6.398;2022-07-23T03:29:35;6.40;;;3.13;;
54897;SDS011;40800;52.704;6.398;2022-07-23T03:32:02;67.00;;;5.97;;
54897;SDS011;40800;52.704;6.398;2022-07-23T03:34:28;6.05;;;3.40;;
54897;SDS011;40800;52.704;6.398;2022-07-23T03:36:54;4.18;;;3.30;;
54897;SDS011;40800;52.704;6.398;2022-07-23T03:39:19;5.05;;;3.17;;
54897;SDS011;40800;52.704;6.398;2022-07-23T03:41:45;6.40;;;3.10;;
54897;SDS011;40800;52.704;6.398;2022-07-23T03:44:11;48.33;;;3.90;;
54897;SDS011;40800;52.704;6.398;2022-07-23T03:46:36;4.20;;;2.50;;
54897;SDS011;40800;52.704;6.398;2022-07-23T03:49:02;2.92;;;1.83;;
54897;SDS011;40800;52.704;6.398;2022-07-23T03:51:27;193.90;;;8.80;;
54897;SDS011;40800;52.704;6.398;2022-07-23T03:53:53;71.13;;;4.80;;
54897;SDS011;40800;52.704;6.398;2022-07-23T03:56:20;209.85;;;12.93;;
54897;SDS011;40800;52.704;6.398;2022-07-23T03:58:46;109.88;;;9.70;;
54897;SDS011;40800;52.704;6.398;2022-07-23T04:01:12;85.25;;;9.07;;
54897;SDS011;40800;52.704;6.398;2022-07-23T04:03:38;8.73;;;6.20;;
54897;SDS011;40800;52.704;6.398;2022-07-23T04:06:03;12.07;;;7.55;;
54897;SDS011;40800;52.704;6.398;2022-07-23T04:08:29;9.73;;;6.90;;
54897;SDS011;40800;52.704;6.398;2022-07-23T04:10:55;12.27;;;8.43;;
54897;SDS011;40800;52.704;6.398;2022-07-23T04:13:20;9.57;;;7.20;;
54897;SDS011;40800;52.704;6.398;2022-07-23T04:15:46;219.20;;;13.35;;
54897;SDS011;40800;52.704;6.398;2022-07-23T04:18:12;26.48;;;5.95;;
54897;SDS011;40800;52.704;6.398;2022-07-23T04:20:38;102.28;;;10.40;;
54897;SDS011;40800;52.704;6.398;2022-07-23T04:23:03;40.83;;;9.07;;
54897;SDS011;40800;52.704;6.398;2022-07-23T04:25:29;8.32;;;5.82;;
54897;SDS011;40800;52.704;6.398;2022-07-23T04:27:55;10.27;;;7.85;;
54897;SDS011;40800;52.704;6.398;2022-07-23T04:30:20;15.25;;;9.38;;
54897;SDS011;40800;52.704;6.398;2022-07-23T04:32:46;14.38;;;10.13;;
54897;SDS011;40800;52.704;6.398;2022-07-23T04:35:12;14.00;;;11.10;;
54897;SDS011;40800;52.704;6.398;2022-07-23T04:37:37;15.05;;;11.27;;
54897;SDS011;40800;52.704;6.398;2022-07-23T04:40:03;15.82;;;10.90;;
54897;SDS011;40800;52.704;6.398;2022-07-23T04:42:29;16.20;;;12.07;;
54897;SDS011;40800;52.704;6.398;2022-07-23T04:44:55;13.10;;;8.82;;
54897;SDS011;40800;52.704;6.398;2022-07-23T04:47:21;9.32;;;6.95;;
54897;SDS011;40800;52.704;6.398;2022-07-23T04:49:46;10.60;;;7.65;;
54897;SDS011;40800;52.704;6.398;2022-07-23T04:52:12;15.52;;;11.02;;
54897;SDS011;40800;52.704;6.398;2022-07-23T04:54:37;9.48;;;6.13;;
54897;SDS011;40800;52.704;6.398;2022-07-23T04:57:03;9.70;;;5.88;;
54897;SDS011;40800;52.704;6.398;2022-07-23T04:59:28;10.93;;;6.25;;
54897;SDS011;40800;52.704;6.398;2022-07-23T05:01:54;12.02;;;6.70;;
54897;SDS011;40800;52.704;6.398;2022-07-23T05:04:20;10.77;;;6.32;;
54897;SDS011;40800;52.704;6.398;2022-07-23T05:06:45;11.05;;;7.35;;
54897;SDS011;40800;52.704;6.398;2022-07-23T05:09:11;11.75;;;7.90;;
54897;SDS011;40800;52.704;6.398;2022-07-23T05:11:36;14.13;;;9.00;;
54897;SDS011;40800;52.704;6.398;2022-07-23T05:14:02;10.05;;;8.13;;
54897;SDS011;40800;52.704;6.398;2022-07-23T05:16:27;12.85;;;8.30;;
54897;SDS011;40800;52.704;6.398;2022-07-23T05:18:53;9.77;;;8.05;;
54897;SDS011;40800;52.704;6.398;2022-07-23T05:21:19;13.70;;;10.13;;
54897;SDS011;40800;52.704;6.398;2022-07-23T05:23:45;15.48;;;11.23;;
54897;SDS011;40800;52.704;6.398;2022-07-23T05:26:10;15.60;;;12.13;;
54897;SDS011;40800;52.704;6.398;2022-07-23T05:28:36;17.60;;;11.75;;
54897;SDS011;40800;52.704;6.398;2022-07-23T05:31:02;18.05;;;12.40;;
54897;SDS011;40800;52.704;6.398;2022-07-23T05:33:29;17.17;;;12.20;;
54897;SDS011;40800;52.704;6.398;2022-07-23T05:35:59;15.65;;;13.05;;
54897;SDS011;40800;52.704;6.398;2022-07-23T05:38:26;14.98;;;11.70;;
54897;SDS011;40800;52.704;6.398;2022-07-23T05:40:52;16.90;;;11.40;;
54897;SDS011;40800;52.704;6.398;2022-07-23T05:43:18;15.18;;;11.57;;
54897;SDS011;40800;52.704;6.398;2022-07-23T05:45:43;14.82;;;11.85;;
54897;SDS011;40800;52.704;6.398;2022-07-23T05:48:09;20.27;;;12.60;;
54897;SDS011;40800;52.704;6.398;2022-07-23T05:50:34;17.02;;;12.75;;
54897;SDS011;40800;52.704;6.398;2022-07-23T05:53:00;15.07;;;11.07;;
54897;SDS011;40800;52.704;6.398;2022-07-23T05:55:26;15.43;;;11.70;;
54897;SDS011;40800;52.704;6.398;2022-07-23T05:57:54;14.73;;;11.25;;
54897;SDS011;40800;52.704;6.398;2022-07-23T06:00:20;15.05;;;10.95;;
54897;SDS011;40800;52.704;6.398;2022-07-23T06:02:46;12.70;;;10.93;;
54897;SDS011;40800;52.704;6.398;2022-07-23T06:05:11;17.35;;;10.93;;
54897;SDS011;40800;52.704;6.398;2022-07-23T06:07:37;13.50;;;10.18;;
54897;SDS011;40800;52.704;6.398;2022-07-23T06:10:03;11.10;;;9.20;;
54897;SDS011;40800;52.704;6.398;2022-07-23T06:12:29;15.43;;;10.48;;
54897;SDS011;40800;52.704;6.398;2022-07-23T06:14:55;11.25;;;9.23;;
54897;SDS011;40800;52.704;6.398;2022-07-23T06:17:21;12.18;;;9.63;;
54897;SDS011;40800;52.704;6.398;2022-07-23T06:19:46;13.00;;;9.20;;
54897;SDS011;40800;52.704;6.398;2022-07-23T06:22:12;10.48;;;8.25;;
54897;SDS011;40800;52.704;6.398;2022-07-23T06:24:37;11.00;;;8.05;;
54897;SDS011;40800;52.704;6.398;2022-07-23T06:27:03;10.75;;;8.90;;
54897;SDS011;40800;52.704;6.398;2022-07-23T06:29:29;8.68;;;7.68;;
54897;SDS011;40800;52.704;6.398;2022-07-23T06:31:55;11.13;;;7.88;;
54897;SDS011;40800;52.704;6.398;2022-07-23T06:34:20;9.50;;;7.35;;
54897;SDS011;40800;52.704;6.398;2022-07-23T06:36:46;10.73;;;7.65;;
54897;SDS011;40800;52.704;6.398;2022-07-23T06:39:12;9.85;;;6.88;;
54897;SDS011;40800;52.704;6.398;2022-07-23T06:41:37;9.93;;;6.82;;
54897;SDS011;40800;52.704;6.398;2022-07-23T06:44:03;9.05;;;6.00;;
54897;SDS011;40800;52.704;6.398;2022-07-23T06:46:29;8.68;;;6.30;;
54897;SDS011;40800;52.704;6.398;2022-07-23T06:48:54;9.90;;;7.07;;
54897;SDS011;40800;52.704;6.398;2022-07-23T06:51:20;8.32;;;5.85;;
54897;SDS011;40800;52.704;6.398;2022-07-23T06:53:46;7.70;;;6.57;;
54897;SDS011;40800;52.704;6.398;2022-07-23T06:56:11;6.95;;;5.30;;
54897;SDS011;40800;52.704;6.398;2022-07-23T06:58:37;8.15;;;5.85;;
54897;SDS011;40800;52.704;6.398;2022-07-23T07:01:03;6.25;;;5.35;;
54897;SDS011;40800;52.704;6.398;2022-07-23T07:03:28;8.00;;;5.78;;
54897;SDS011;40800;52.704;6.398;2022-07-23T07:05:54;5.82;;;4.72;;
54897;SDS011;40800;52.704;6.398;2022-07-23T07:08:22;7.97;;;4.72;;
54897;SDS011;40800;52.704;6.398;2022-07-23T07:10:48;8.50;;;4.38;;
54897;SDS011;40800;52.704;6.398;2022-07-23T07:13:14;8.15;;;4.03;;
54897;SDS011;40800;52.704;6.398;2022-07-23T07:15:40;5.82;;;3.65;;
54897;SDS011;40800;52.704;6.398;2022-07-23T07:18:05;5.72;;;2.92;;
54897;SDS011;40800;52.704;6.398;2022-07-23T07:20:31;5.85;;;2.42;;
54897;SDS011;40800;52.704;6.398;2022-07-23T07:22:57;4.78;;;2.45;;
54897;SDS011;40800;52.704;6.398;2022-07-23T07:25:22;5.03;;;2.30;;
54897;SDS011;40800;52.704;6.398;2022-07-23T07:27:48;7.00;;;2.90;;
54897;SDS011;40800;52.704;6.398;2022-07-23T07:30:14;4.53;;;2.47;;
54897;SDS011;40800;52.704;6.398;2022-07-23T07:32:39;6.00;;;2.50;;
54897;SDS011;40800;52.704;6.398;2022-07-23T07:35:06;5.78;;;2.40;;
54897;SDS011;40800;52.704;6.398;2022-07-23T07:37:32;3.28;;;2.13;;
54897;SDS011;40800;52.704;6.398;2022-07-23T07:39:58;5.27;;;2.60;;
54897;SDS011;40800;52.704;6.398;2022-07-23T07:42:24;5.90;;;2.10;;
54897;SDS011;40800;52.704;6.398;2022-07-23T07:44:49;3.10;;;2.00;;
54897;SDS011;40800;52.704;6.398;2022-07-23T07:47:15;5.60;;;2.00;;
54897;SDS011;40800;52.704;6.398;2022-07-23T07:49:41;4.95;;;2.00;;
54897;SDS011;40800;52.704;6.398;2022-07-23T07:52:08;3.70;;;1.80;;
54897;SDS011;40800;52.704;6.398;2022-07-23T07:54:34;3.40;;;1.92;;
54897;SDS011;40800;52.704;6.398;2022-07-23T07:56:59;4.47;;;2.10;;
54897;SDS011;40800;52.704;6.398;2022-07-23T07:59:25;5.13;;;1.95;;
54897;SDS011;40800;52.704;6.398;2022-07-23T08:01:51;4.93;;;1.85;;
54897;SDS011;40800;52.704;6.398;2022-07-23T08:04:16;3.47;;;1.95;;
54897;SDS011;40800;52.704;6.398;2022-07-23T08:06:42;4.63;;;2.13;;
54897;SDS011;40800;52.704;6.398;2022-07-23T08:09:08;2.78;;;2.03;;
54897;SDS011;40800;52.704;6.398;2022-07-23T08:11:33;2.90;;;1.48;;
54897;SDS011;40800;52.704;6.398;2022-07-23T08:13:59;5.78;;;2.05;;
54897;SDS011;40800;52.704;6.398;2022-07-23T08:16:24;4.28;;;2.15;;
54897;SDS011;40800;52.704;6.398;2022-07-23T08:18:50;10.32;;;2.42;;
54897;SDS011;40800;52.704;6.398;2022-07-23T08:21:16;4.63;;;1.80;;
54897;SDS011;40800;52.704;6.398;2022-07-23T08:23:41;4.72;;;1.70;;
54897;SDS011;40800;52.704;6.398;2022-07-23T08:26:07;2.75;;;1.60;;
54897;SDS011;40800;52.704;6.398;2022-07-23T08:28:33;4.90;;;1.75;;
54897;SDS011;40800;52.704;6.398;2022-07-23T08:30:58;3.92;;;1.90;;
54897;SDS011;40800;52.704;6.398;2022-07-23T08:33:25;4.03;;;2.05;;
54897;SDS011;40800;52.704;6.398;2022-07-23T08:35:50;4.00;;;1.80;;
54897;SDS011;40800;52.704;6.398;2022-07-23T08:38:19;4.05;;;1.75;;
54897;SDS011;40800;52.704;6.398;2022-07-23T08:40:50;2.25;;;1.50;;
54897;SDS011;40800;52.704;6.398;2022-07-23T08:43:18;4.10;;;1.70;;
54897;SDS011;40800;52.704;6.398;2022-07-23T08:45:47;2.63;;;1.60;;
54897;SDS011;40800;52.704;6.398;2022-07-23T08:48:15;2.10;;;1.50;;
54897;SDS011;40800;52.704;6.398;2022-07-23T08:50:48;3.30;;;1.70;;
54897;SDS011;40800;52.704;6.398;2022-07-23T08:53:16;2.80;;;1.80;;
54897;SDS011;40800;52.704;6.398;2022-07-23T08:55:43;3.78;;;2.10;;
54897;SDS011;40800;52.704;6.398;2022-07-23T08:58:13;2.78;;;1.80;;
54897;SDS011;40800;52.704;6.398;2022-07-23T09:00:39;3.88;;;1.58;;
54897;SDS011;40800;52.704;6.398;2022-07-23T09:03:05;4.50;;;1.80;;
54897;SDS011;40800;52.704;6.398;2022-07-23T09:05:30;2.72;;;2.00;;
54897;SDS011;40800;52.704;6.398;2022-07-23T09:08:09;3.58;;;1.90;;
54897;SDS011;40800;52.704;6.398;2022-07-23T09:10:50;3.88;;;1.90;;
54897;SDS011;40800;52.704;6.398;2022-07-23T09:16:12;5.10;;;2.00;;
54897;SDS011;40800;52.704;6.398;2022-07-23T09:18:58;2.20;;;1.48;;
54897;SDS011;40800;52.704;6.398;2022-07-23T09:21:32;5.30;;;1.58;;
54897;SDS011;40800;52.704;6.398;2022-07-23T09:24:05;2.22;;;1.30;;
54897;SDS011;40800;52.704;6.398;2022-07-23T09:31:51;1.90;;;1.60;;
54897;SDS011;40800;52.704;6.398;2022-07-23T09:34:19;3.15;;;1.58;;
54897;SDS011;40800;52.704;6.398;2022-07-23T09:36:46;2.78;;;1.60;;
54897;SDS011;40800;52.704;6.398;2022-07-23T09:41:44;3.70;;;1.40;;
54897;SDS011;40800;52.704;6.398;2022-07-23T09:44:12;4.03;;;1.60;;
54897;SDS011;40800;52.704;6.398;2022-07-23T09:46:39;3.53;;;1.73;;
54897;SDS011;40800;52.704;6.398;2022-07-23T09:54:20;3.20;;;1.70;;
54897;SDS011;40800;52.704;6.398;2022-07-23T09:56:46;2.35;;;1.63;;
54897;SDS011;40800;52.704;6.398;2022-07-23T09:59:13;11.68;;;1.92;;
54897;SDS011;40800;52.704;6.398;2022-07-23T10:01:43;3.05;;;1.60;;
54897;SDS011;40800;52.704;6.398;2022-07-23T10:06:35;2.85;;;1.70;;
54897;SDS011;40800;52.704;6.398;2022-07-23T10:11:28;4.05;;;1.80;;
54897;SDS011;40800;52.704;6.398;2022-07-23T10:13:56;2.17;;;1.35;;
54897;SDS011;40800;52.704;6.398;2022-07-23T10:16:27;6.63;;;2.10;;
54897;SDS011;40800;52.704;6.398;2022-07-23T10:21:27;2.75;;;1.70;;
54897;SDS011;40800;52.704;6.398;2022-07-23T10:24:07;4.28;;;1.85;;
54897;SDS011;40800;52.704;6.398;2022-07-23T10:26:49;5.13;;;1.73;;
54897;SDS011;40800;52.704;6.398;2022-07-23T10:34:44;2.40;;;1.50;;
54897;SDS011;40800;52.704;6.398;2022-07-23T10:37:21;3.70;;;1.85;;
54897;SDS011;40800;52.704;6.398;2022-07-23T10:40:13;2.72;;;1.92;;
54897;SDS011;40800;52.704;6.398;2022-07-23T10:42:43;3.75;;;1.92;;
54897;SDS011;40800;52.704;6.398;2022-07-23T10:45:22;2.88;;;1.70;;
54897;SDS011;40800;52.704;6.398;2022-07-23T10:47:56;3.58;;;1.80;;
54897;SDS011;40800;52.704;6.398;2022-07-23T10:50:40;3.10;;;2.00;;
54897;SDS011;40800;52.704;6.398;2022-07-23T10:55:44;2.58;;;2.10;;
54897;SDS011;40800;52.704;6.398;2022-07-23T10:58:18;5.40;;;2.03;;
54897;SDS011;40800;52.704;6.398;2022-07-23T11:00:45;2.78;;;1.83;;
54897;SDS011;40800;52.704;6.398;2022-07-23T11:03:30;2.03;;;1.75;;
54897;SDS011;40800;52.704;6.398;2022-07-23T11:05:57;3.15;;;1.95;;
54897;SDS011;40800;52.704;6.398;2022-07-23T11:08:23;3.67;;;1.90;;
54897;SDS011;40800;52.704;6.398;2022-07-23T11:16:11;4.25;;;1.95;;
54897;SDS011;40800;52.704;6.398;2022-07-23T11:36:59;3.42;;;2.20;;
54897;SDS011;40800;52.704;6.398;2022-07-23T11:39:26;3.42;;;2.10;;
54897;SDS011;40800;52.704;6.398;2022-07-23T11:41:53;2.50;;;1.80;;
54897;SDS011;40800;52.704;6.398;2022-07-23T11:44:30;3.65;;;2.10;;
54897;SDS011;40800;52.704;6.398;2022-07-23T11:47:01;3.67;;;2.00;;
54897;SDS011;40800;52.704;6.398;2022-07-23T11:49:28;3.15;;;2.30;;
54897;SDS011;40800;52.704;6.398;2022-07-23T11:52:04;4.33;;;2.17;;
54897;SDS011;40800;52.704;6.398;2022-07-23T11:54:36;4.45;;;2.35;;
54897;SDS011;40800;52.704;6.398;2022-07-23T11:57:11;3.65;;;2.28;;
54897;SDS011;40800;52.704;6.398;2022-07-23T11:59:37;6.63;;;2.53;;
54897;SDS011;40800;52.704;6.398;2022-07-23T12:02:05;3.97;;;2.33;;
54897;SDS011;40800;52.704;6.398;2022-07-23T12:04:38;3.45;;;2.03;;
54897;SDS011;40800;52.704;6.398;2022-07-23T12:10:15;2.83;;;2.20;;
54897;SDS011;40800;52.704;6.398;2022-07-23T12:12:49;4.07;;;2.00;;
54897;SDS011;40800;52.704;6.398;2022-07-23T12:15:22;3.47;;;2.20;;
54897;SDS011;40800;52.704;6.398;2022-07-23T12:17:52;4.10;;;2.58;;
54897;SDS011;40800;52.704;6.398;2022-07-23T12:20:23;3.58;;;2.30;;
54897;SDS011;40800;52.704;6.398;2022-07-23T12:22:51;3.20;;;2.45;;
54897;SDS011;40800;52.704;6.398;2022-07-23T12:25:19;2.80;;;2.10;;
54897;SDS011;40800;52.704;6.398;2022-07-23T12:27:59;5.43;;;2.50;;
54897;SDS011;40800;52.704;6.398;2022-07-23T12:30:34;2.80;;;2.00;;
54897;SDS011;40800;52.704;6.398;2022-07-23T12:33:08;4.03;;;2.47;;
54897;SDS011;40800;52.704;6.398;2022-07-23T12:35:36;4.38;;;2.30;;
54897;SDS011;40800;52.704;6.398;2022-07-23T12:38:08;3.40;;;2.17;;
54897;SDS011;40800;52.704;6.398;2022-07-23T12:40:48;2.95;;;2.10;;
54897;SDS011;40800;52.704;6.398;2022-07-23T12:43:24;4.22;;;2.10;;
54897;SDS011;40800;52.704;6.398;2022-07-23T12:45:55;3.35;;;2.50;;
54897;SDS011;40800;52.704;6.398;2022-07-23T12:48:36;4.15;;;2.38;;
54897;SDS011;40800;52.704;6.398;2022-07-23T12:51:04;4.47;;;2.13;;
54897;SDS011;40800;52.704;6.398;2022-07-23T12:53:40;3.92;;;2.50;;
54897;SDS011;40800;52.704;6.398;2022-07-23T12:58:43;2.85;;;2.03;;
54897;SDS011;40800;52.704;6.398;2022-07-23T13:01:21;3.42;;;2.30;;
54897;SDS011;40800;52.704;6.398;2022-07-23T13:06:40;3.30;;;2.30;;
54897;SDS011;40800;52.704;6.398;2022-07-23T13:09:09;4.32;;;2.00;;
54897;SDS011;40800;52.704;6.398;2022-07-23T13:11:40;3.58;;;2.13;;
54897;SDS011;40800;52.704;6.398;2022-07-23T13:14:06;3.23;;;2.10;;
54897;SDS011;40800;52.704;6.398;2022-07-23T13:16:31;3.40;;;2.30;;
54897;SDS011;40800;52.704;6.398;2022-07-23T13:18:58;3.25;;;2.30;;
54897;SDS011;40800;52.704;6.398;2022-07-23T13:21:25;3.20;;;1.90;;
54897;SDS011;40800;52.704;6.398;2022-07-23T13:23:53;4.15;;;2.25;;
54897;SDS011;40800;52.704;6.398;2022-07-23T13:26:19;2.85;;;2.38;;
54897;SDS011;40800;52.704;6.398;2022-07-23T13:28:45;3.38;;;2.20;;
54897;SDS011;40800;52.704;6.398;2022-07-23T13:31:10;6.27;;;2.10;;
54897;SDS011;40800;52.704;6.398;2022-07-23T13:33:36;3.20;;;2.40;;
54897;SDS011;40800;52.704;6.398;2022-07-23T13:36:02;3.30;;;2.13;;
54897;SDS011;40800;52.704;6.398;2022-07-23T13:38:28;3.00;;;2.00;;
54897;SDS011;40800;52.704;6.398;2022-07-23T13:40:54;3.50;;;2.30;;
54897;SDS011;40800;52.704;6.398;2022-07-23T13:43:21;3.07;;;2.50;;
54897;SDS011;40800;52.704;6.398;2022-07-23T13:45:48;3.47;;;1.98;;
54897;SDS011;40800;52.704;6.398;2022-07-23T13:48:15;2.67;;;1.95;;
54897;SDS011;40800;52.704;6.398;2022-07-23T13:50:41;4.50;;;2.13;;
54897;SDS011;40800;52.704;6.398;2022-07-23T13:53:09;4.32;;;2.22;;
54897;SDS011;40800;52.704;6.398;2022-07-23T13:55:36;3.25;;;2.30;;
54897;SDS011;40800;52.704;6.398;2022-07-23T14:00:29;5.10;;;2.25;;
54897;SDS011;40800;52.704;6.398;2022-07-23T14:02:56;3.17;;;2.20;;
54897;SDS011;40800;52.704;6.398;2022-07-23T14:05:23;4.35;;;1.92;;
54897;SDS011;40800;52.704;6.398;2022-07-23T14:07:49;4.05;;;2.30;;
54897;SDS011;40800;52.704;6.398;2022-07-23T14:10:17;2.58;;;2.00;;
54897;SDS011;40800;52.704;6.398;2022-07-23T14:12:44;2.80;;;2.08;;
54897;SDS011;40800;52.704;6.398;2022-07-23T14:15:11;3.80;;;2.10;;
54897;SDS011;40800;52.704;6.398;2022-07-23T14:17:38;3.92;;;2.10;;
54897;SDS011;40800;52.704;6.398;2022-07-23T14:20:05;4.28;;;2.30;;
54897;SDS011;40800;52.704;6.398;2022-07-23T14:22:31;3.55;;;2.20;;
54897;SDS011;40800;52.704;6.398;2022-07-23T14:24:57;4.45;;;2.28;;
54897;SDS011;40800;52.704;6.398;2022-07-23T14:27:23;2.63;;;2.10;;
54897;SDS011;40800;52.704;6.398;2022-07-23T14:29:51;3.00;;;2.08;;
54897;SDS011;40800;52.704;6.398;2022-07-23T14:32:16;3.20;;;2.08;;
54897;SDS011;40800;52.704;6.398;2022-07-23T14:34:42;2.73;;;1.80;;
54897;SDS011;40800;52.704;6.398;2022-07-23T14:37:09;3.50;;;2.10;;
54897;SDS011;40800;52.704;6.398;2022-07-23T14:39:36;4.93;;;2.28;;
54897;SDS011;40800;52.704;6.398;2022-07-23T14:42:02;2.88;;;2.10;;
54897;SDS011;40800;52.704;6.398;2022-07-23T14:44:28;3.42;;;2.05;;
54897;SDS011;40800;52.704;6.398;2022-07-23T14:46:54;2.20;;;2.00;;
54897;SDS011;40800;52.704;6.398;2022-07-23T14:49:20;3.33;;;2.00;;
54897;SDS011;40800;52.704;6.398;2022-07-23T14:51:46;3.08;;;1.80;;
54897;SDS011;40800;52.704;6.398;2022-07-23T14:54:12;3.35;;;2.10;;
54897;SDS011;40800;52.704;6.398;2022-07-23T14:56:39;2.83;;;1.92;;
54897;SDS011;40800;52.704;6.398;2022-07-23T14:59:05;2.13;;;1.92;;
54897;SDS011;40800;52.704;6.398;2022-07-23T15:01:31;3.38;;;1.80;;
54897;SDS011;40800;52.704;6.398;2022-07-23T15:06:23;3.53;;;1.98;;
54897;SDS011;40800;52.704;6.398;2022-07-23T15:08:49;2.53;;;1.90;;
54897;SDS011;40800;52.704;6.398;2022-07-23T15:11:15;2.40;;;1.73;;
54897;SDS011;40800;52.704;6.398;2022-07-23T15:13:41;2.50;;;1.83;;
54897;SDS011;40800;52.704;6.398;2022-07-23T15:16:07;3.17;;;2.30;;
54897;SDS011;40800;52.704;6.398;2022-07-23T15:20:59;3.58;;;2.10;;
54897;SDS011;40800;52.704;6.398;2022-07-23T15:23:26;3.15;;;2.05;;
54897;SDS011;40800;52.704;6.398;2022-07-23T15:25:53;3.42;;;2.13;;
54897;SDS011;40800;52.704;6.398;2022-07-23T15:28:20;2.60;;;2.00;;
54897;SDS011;40800;52.704;6.398;2022-07-23T15:30:46;3.55;;;2.20;;
54897;SDS011;40800;52.704;6.398;2022-07-23T15:33:12;4.22;;;2.67;;
54897;SDS011;40800;52.704;6.398;2022-07-23T15:35:37;3.27;;;2.37;;
54897;SDS011;40800;52.704;6.398;2022-07-23T15:38:03;2.30;;;2.00;;
54897;SDS011;40800;52.704;6.398;2022-07-23T15:40:29;2.20;;;1.90;;
54897;SDS011;40800;52.704;6.398;2022-07-23T15:42:54;4.23;;;2.57;;
54897;SDS011;40800;52.704;6.398;2022-07-23T15:45:20;4.37;;;2.20;;
54897;SDS011;40800;52.704;6.398;2022-07-23T15:47:46;2.40;;;1.90;;
54897;SDS011;40800;52.704;6.398;2022-07-23T15:50:13;5.93;;;2.10;;
54897;SDS011;40800;52.704;6.398;2022-07-23T15:52:38;2.87;;;1.90;;
54897;SDS011;40800;52.704;6.398;2022-07-23T15:55:04;2.17;;;1.60;;